Flight Track Log - Related Links

Times and Time Zones

All times are in EDT time to prevent confusion due to time zone crossing. See the SWA3764 flight status page for this flight to view local times or setup timezone preferences in your user account.

Time Position Orientation Groundspeed Altitude Reporting Facility
EDT Latitude Longitude Course Direction KTS MPH feet Rate Location/Type
Sun 09:35:01 AM 34.0389 -117.5419 54° Northeast 253 291 2,500  Level Los Angeles Center
Sun 09:36:02 AM 34.0242 -117.5978 252° West 219 252 5,000 2,479 Climbing Los Angeles Center
Sun 09:37:02 AM 34.0636 -117.6606 307° West 230 265 7,500 2,281 Climbing Los Angeles Center
Sun 09:38:03 AM 34.1058 -117.7281 307° West 244 281 9,600 2,410 Climbing Los Angeles Center
Sun 09:39:04 AM 34.1519 -117.8031 307° West 269 310 12,400 1,918 Climbing Los Angeles Center
Sun 09:40:00 AM 34.3905 -117.8214 54° Northeast  Level FlightAware Approximate
Sun 09:40:05 AM 34.2247 -117.8386 338° Northwest 318 366 13,500  Level Los Angeles Center
Sun 09:41:05 AM 34.2936 -117.7478 47° Northeast 363 418 15,800 1,934 Climbing Los Angeles Center
Sun 09:42:06 AM 34.3525 -117.6403 56° Northeast 377 434 17,400 1,967 Climbing Los Angeles Center
Sun 09:43:07 AM 34.4175 -117.5278 55° Northeast 402 463 19,800 2,066 Climbing Los Angeles Center
Sun 09:44:08 AM 34.4817 -117.4175 55° Northeast 403 464 21,600 1,721 Climbing Los Angeles Center
Sun 09:45:09 AM 34.5467 -117.3025 56° Northeast 409 471 23,300 1,525 Climbing Los Angeles Center
Sun 09:46:10 AM 34.6153 -117.1853 55° Northeast 420 483 24,700 1,525 Climbing Los Angeles Center
Sun 09:47:11 AM 34.7128 -117.0508 49° Northeast 444 511 26,400 1,488 Climbing Los Angeles Center
Sun 09:48:11 AM 34.7950 -116.9392 48° Northeast 444 511 27,700 1,240 Climbing Los Angeles Center
Sun 09:49:12 AM 34.8794 -116.8236 48° Northeast 457 526 28,900 1,230 Climbing Los Angeles Center
Sun 09:50:13 AM 34.9653 -116.7069 48° Northeast 462 532 30,200 1,279 Climbing Los Angeles Center
Sun 09:51:14 AM 35.0525 -116.5878 48° Northeast 460 529 31,500 1,180 Climbing Los Angeles Center
Sun 09:52:15 AM 35.1344 -116.4761 48° Northeast 460 529 32,600 1,082 Climbing Los Angeles Center
Sun 09:53:16 AM 35.2178 -116.3614 48° Northeast 458 527 33,700 934 Climbing Los Angeles Center
Sun 09:54:17 AM 35.3014 -116.2461 48° Northeast 457 526 34,500 639 Climbing Los Angeles Center
Sun 09:55:18 AM 35.3853 -116.1306 48° Northeast 456 525 35,000 246 Climbing Los Angeles Center
Sun 09:56:19 AM 35.4694 -116.0119 49° Northeast 458 527 35,000  Level Los Angeles Center
Sun 09:57:20 AM 35.5683 -115.8764 48° Northeast 461 531 35,000  Level Los Angeles Center
Sun 09:58:21 AM 35.6547 -115.7608 47° Northeast 461 531 35,000  Level Los Angeles Center
Sun 09:59:22 AM 35.7403 -115.6403 49° Northeast 465 535 35,000  Level Los Angeles Center
Sun 10:00:23 AM 35.8267 -115.5189 49° Northeast 470 541 35,000  Level Los Angeles Center
Sun 10:01:24 AM 35.9114 -115.3986 49° Northeast 469 540 35,000  Level Los Angeles Center
Sun 10:02:25 AM 35.9953 -115.2778 49° Northeast 468 539 35,000  Level Los Angeles Center
Sun 10:03:26 AM 36.0911 -115.1269 52° Northeast 468 539 35,000  Level Los Angeles Center
Sun 10:04:28 AM 36.1433 -114.9761 67° East 477 549 35,000  Level Los Angeles Center
Sun 10:05:29 AM 36.1958 -114.8283 66° East 477 549 35,000  Level Los Angeles Center
Sun 10:06:30 AM 36.2478 -114.6811 66° East 469 540 35,000  Level Los Angeles Center
Sun 10:07:31 AM 36.2994 -114.5322 67° East 471 542 35,000  Level Los Angeles Center
Sun 10:08:32 AM 36.3506 -114.3842 67° East 470 541 35,000  Level Los Angeles Center
Sun 10:09:33 AM 36.4036 -114.2353 66° East 470 541 35,000  Level Los Angeles Center
Sun 10:10:34 AM 36.4542 -114.0858 67° East 470 541 35,000  Level Los Angeles Center
Sun 10:11:35 AM 36.5119 -113.9183 67° East 471 542 35,000  Level Los Angeles Center
Sun 10:12:36 AM 36.5631 -113.7683 67° East 471 542 35,000  Level Los Angeles Center
Sun 10:13:37 AM 36.6128 -113.6189 67° East 471 542 35,000  Level Los Angeles Center
Sun 10:14:39 AM 36.6642 -113.4703 67° East 471 542 35,000  Level Los Angeles Center
Sun 10:15:40 AM 36.7150 -113.3203 67° East 471 542 35,000  Level Los Angeles Center
Sun 10:16:41 AM 36.7658 -113.1689 67° East 472 543 35,000  Level Los Angeles Center
Sun 10:17:42 AM 36.8158 -113.0172 68° East 473 544 35,000  Level Los Angeles Center
Sun 10:18:43 AM 36.8753 -112.8358 68° East 473 544 35,000  Level Los Angeles Center
Sun 10:19:44 AM 36.9261 -112.6839 67° East 475 547 35,000  Level Los Angeles Center
Sun 10:20:46 AM 36.9761 -112.5319 68° East 475 547 35,000  Level Los Angeles Center
Sun 10:21:47 AM 37.0250 -112.3792 68° East 475 547 35,000  Level Los Angeles Center
Sun 10:22:48 AM 37.0747 -112.2269 68° East 475 547 35,000  Level Los Angeles Center
Sun 10:23:49 AM 37.1231 -112.0739 68° East 475 547 35,000  Level Los Angeles Center
Sun 10:24:50 AM 37.1731 -111.9206 68° East 476 548 35,000  Level Los Angeles Center
Sun 10:25:51 AM 37.2217 -111.7667 68° East 477 549 35,000  Level Los Angeles Center
Sun 10:26:53 AM 37.2706 -111.6125 68° East 477 549 35,000  Level Los Angeles Center
Sun 10:27:54 AM 37.3300 -111.4264 68° East 477 549 35,000  Level Los Angeles Center
Sun 10:28:55 AM 37.3775 -111.2728 69° East 477 549 35,000  Level Los Angeles Center
Sun 10:30:15 AM 37.4347 -111.0853 69° East 479 551 35,000  Level Denver Center
Sun 10:31:16 AM 37.4842 -110.9283 68° East 481 554 35,000  Level Denver Center
Sun 10:32:18 AM 37.5422 -110.7406 69° East 481 554 35,000  Level Denver Center
Sun 10:33:20 AM 37.5897 -110.5814 69° East 483 556 35,000  Level Denver Center
Sun 10:34:22 AM 37.6364 -110.4283 69° East 483 556 35,000  Level Denver Center
Sun 10:35:23 AM 37.6900 -110.2511 69° East 483 556 35,000  Level Denver Center
Sun 10:36:25 AM 37.7356 -110.0992 69° East 484 557 35,000  Level Denver Center
Sun 10:37:27 AM 37.7889 -109.9200 69° East 484 557 35,000  Level Denver Center
Sun 10:38:29 AM 37.8342 -109.7647 70° East 486 559 35,000  Level Denver Center
Sun 10:39:43 AM 37.8797 -109.6128 69° East 485 558 35,000  Level Denver Center
Sun 10:40:45 AM 37.9397 -109.4067 70° East 487 560 35,000  Level Denver Center
Sun 10:41:47 AM 37.9931 -109.2264 69° East 487 560 35,000  Level Denver Center
Sun 10:42:49 AM 38.0378 -109.0706 70° East 488 562 35,000  Level Denver Center
Sun 10:43:51 AM 38.0856 -108.9006 70° East 491 565 35,000  Level Denver Center
Sun 10:44:53 AM 38.1300 -108.7444 70° East 491 565 35,000  Level Denver Center
Sun 10:45:55 AM 38.1817 -108.5642 70° East 491 565 35,000  Level Denver Center
Sun 10:46:56 AM 38.2250 -108.4111 70° East 487 560 35,000  Level Denver Center
Sun 10:47:58 AM 38.2756 -108.2308 70° East 487 560 35,000  Level Denver Center
Sun 10:49:00 AM 38.3178 -108.0775 71° East 484 557 35,000  Level Denver Center
Sun 10:50:02 AM 38.3683 -107.8981 70° East 483 556 35,000  Level Denver Center
Sun 10:51:04 AM 38.4106 -107.7431 71° East 483 556 35,000  Level Denver Center
Sun 10:52:06 AM 38.4628 -107.5669 69° East 481 554 35,000  Level Denver Center
Sun 10:53:08 AM 38.5283 -107.4242 60° Northeast 485 558 35,000  Level Denver Center
Sun 10:54:10 AM 38.6003 -107.2631 60° Northeast 477 549 35,000  Level Denver Center
Sun 10:55:12 AM 38.6589 -107.1322 60° Northeast 475 547 35,000  Level Denver Center
Sun 10:56:14 AM 38.7231 -106.9850 61° Northeast 475 547 35,000  Level Denver Center
Sun 10:57:16 AM 38.7872 -106.8394 60° Northeast 474 545 35,000  Level Denver Center
Sun 10:58:18 AM 38.8644 -106.6644 60° Northeast 474 545 35,000  Level Denver Center
Sun 10:59:20 AM 38.9333 -106.5172 59° Northeast 474 545 35,000  Level Denver Center
Sun 11:00:22 AM 38.9978 -106.3786 59° Northeast 475 547 35,000 -726 Level Denver Center
Sun 11:01:24 AM 39.0711 -106.2161 60° Northeast 474 545 33,500 -2,129 Descending Denver Center
Sun 11:02:26 AM 39.1347 -106.0750 60° Northeast 465 535 30,600 -3,122 Descending Denver Center
Sun 11:03:27 AM 39.1981 -105.9294 61° Northeast 465 535 27,100 -3,366 Descending Denver Center
Sun 11:04:29 AM 39.2642 -105.7797 60° Northeast 477 549 23,700 -2,855 Descending Denver Center
Sun 11:05:31 AM 39.3297 -105.6297 60° Northeast 480 552 21,200 -1,790 Descending Denver Center
Sun 11:06:33 AM 39.3992 -105.4758 60° Northeast 439 505 20,000 -1,113 Descending Denver Center
Sun 11:07:35 AM 39.4633 -105.3553 55° Northeast 378 435 18,900 -1,113 Descending Denver Center
Sun 11:08:37 AM 39.5181 -105.2497 56° Northeast 353 406 17,700 -919 Descending Denver Center
Sun 11:09:39 AM 39.5783 -105.1342 56° Northeast 358 412 17,000 -629 Descending Denver Center
Sun 11:10:41 AM 39.6342 -105.0247 56° Northeast 363 418 16,400 -1,200 Descending Denver Center
Sun 11:11:44 AM 39.6944 -104.9100 56° Northeast 359 413 14,500 -1,694 Descending Denver Center
Sun 11:12:45 AM 39.7647 -104.8406 37° Northeast 328 377 12,900 -1,463 Descending Denver Center
Sun 11:13:47 AM 39.8519 -104.8403 360° North 313 360 11,500 -968 Descending Denver Center
Sun 11:14:49 AM 39.9372 -104.8389 North 276 318 10,900 -968 Descending Denver Center
Sun 11:15:51 AM 40.0078 -104.8397 359° North 255 293 9,500 -1,065 Descending Denver Center
Sun 11:16:53 AM 40.0706 -104.8386 North 260 299 8,700 -823 Descending Denver Center
Sun 11:17:55 AM 40.0761 -104.7392 86° East 244 281 7,800 -774 Descending Denver Center
Sun 11:18:57 AM 40.0244 -104.6983 149° Southeast 217 250 7,100 -484 Descending Denver Center
Sun 11:19:59 AM 39.9706 -104.6958 178° South 194 223 6,800 -581 Descending Denver Center
Sun 11:21:01 AM 39.9242 -104.6956 180° South 158 182 5,900 -732 Descending Denver Center
Sun 11:22:02 AM 39.8833 -104.6964 181° South 151 174 5,300 -590 Descending Denver Center
Sun 11:24:00 AM 39.8617 -104.6732 159° South  Level Estimated
Sun 11:31:00 AM 39.8617 -104.6732 159° South  Level Estimated
Sun 11:32:00 AM 39.8617 -104.6732 159° South  Level Estimated

Login

Don't have an account? Register now (free) for customized features, flight alerts, and more!